![]() |
EMODnet Physics ERDDAP
Easier access to scientific data |
log in|
Brought to you by EMODnet Physics |
| Dataset Title: | NDBC - Collection of dew point temperature (DEWT) TimeSeries - IN SITU MultiPointTimeSeriesObservation
|
| Institution: | NDBC (Dataset ID: TS_DEWT_NDBC) |
| Information: | Summary
| License
| FGDC
| ISO 19115
| Metadata
| Background
| Subset
| Data Access Form
| Make a graph
|
| Name | Last modified | Size | Description | |
|---|---|---|---|---|
| Parent Directory | - | - | ||
| PGXA2_TS_DEWT_012019.nc | 27-Oct-2024 17:08 | 449899 | ||
| PGXA2_TS_DEWT_012020.nc | 27-Oct-2024 17:08 | 450254 | ||
| PGXA2_TS_DEWT_012021.nc | 27-Oct-2024 17:08 | 451166 | ||
| PGXA2_TS_DEWT_012022.nc | 27-Oct-2024 17:08 | 451544 | ||
| PGXA2_TS_DEWT_012024.nc | 27-Oct-2024 17:09 | 451701 | ||
| PGXA2_TS_DEWT_012025.nc | 19-Feb-2025 07:42 | 450768 | ||
| PGXA2_TS_DEWT_012026.nc | 02-Feb-2026 18:56 | 450618 | ||
| PGXA2_TS_DEWT_022018.nc | 27-Oct-2024 17:09 | 451026 | ||
| PGXA2_TS_DEWT_022019.nc | 27-Oct-2024 17:09 | 450733 | ||
| PGXA2_TS_DEWT_022020.nc | 27-Oct-2024 17:09 | 450365 | ||
| PGXA2_TS_DEWT_022021.nc | 27-Oct-2024 17:09 | 4313777 | ||
| PGXA2_TS_DEWT_022024.nc | 16-Sep-2024 16:51 | 5623482 | ||
| PGXA2_TS_DEWT_022025.nc | 01-Mar-2025 08:08 | 450553 | ||
| PGXA2_TS_DEWT_022026.nc | 19-Mar-2026 08:41 | 451974 | ||
| PGXA2_TS_DEWT_032018.nc | 27-Oct-2024 17:09 | 451470 | ||
| PGXA2_TS_DEWT_032019.nc | 27-Oct-2024 17:09 | 449490 | ||
| PGXA2_TS_DEWT_032020.nc | 27-Oct-2024 17:09 | 433992 | ||
| PGXA2_TS_DEWT_032021.nc | 27-Oct-2024 17:09 | 450880 | ||
| PGXA2_TS_DEWT_032025.nc | 02-Apr-2025 05:32 | 450511 | ||
| PGXA2_TS_DEWT_042018.nc | 27-Oct-2024 17:09 | 450303 | ||
| PGXA2_TS_DEWT_042019.nc | 27-Oct-2024 17:09 | 450687 | ||
| PGXA2_TS_DEWT_042020.nc | 27-Oct-2024 17:09 | 449170 | ||
| PGXA2_TS_DEWT_042021.nc | 27-Oct-2024 17:09 | 450929 | ||
| PGXA2_TS_DEWT_042025.nc | 01-May-2025 06:38 | 450000 | ||
| PGXA2_TS_DEWT_052018.nc | 27-Oct-2024 17:09 | 3258970 | ||
| PGXA2_TS_DEWT_052019.nc | 27-Oct-2024 17:09 | 447753 | ||
| PGXA2_TS_DEWT_052020.nc | 27-Oct-2024 17:10 | 449047 | ||
| PGXA2_TS_DEWT_052021.nc | 27-Oct-2024 17:10 | 447844 | ||
| PGXA2_TS_DEWT_052022.nc | 27-Oct-2024 17:10 | 447956 | ||
| PGXA2_TS_DEWT_052023.nc | 27-Oct-2024 17:10 | 448044 | ||
| PGXA2_TS_DEWT_052025.nc | 01-Jun-2025 07:22 | 447873 | ||
| PGXA2_TS_DEWT_062018.nc | 27-Oct-2024 17:10 | 439337 | ||
| PGXA2_TS_DEWT_062019.nc | 27-Oct-2024 17:10 | 448454 | ||
| PGXA2_TS_DEWT_062020.nc | 27-Oct-2024 17:10 | 447724 | ||
| PGXA2_TS_DEWT_062021.nc | 27-Oct-2024 17:10 | 448295 | ||
| PGXA2_TS_DEWT_062022.nc | 27-Oct-2024 17:10 | 4737545 | ||
| PGXA2_TS_DEWT_062023.nc | 27-Oct-2024 17:10 | 450485 | ||
| PGXA2_TS_DEWT_062025.nc | 01-Jul-2025 07:43 | 451257 | ||
| PGXA2_TS_DEWT_072019.nc | 27-Oct-2024 17:10 | 451369 | ||
| PGXA2_TS_DEWT_072020.nc | 27-Oct-2024 17:10 | 449857 | ||
| PGXA2_TS_DEWT_072021.nc | 27-Oct-2024 17:10 | 450147 | ||
| PGXA2_TS_DEWT_072022.nc | 27-Oct-2024 17:10 | 450928 | ||
| PGXA2_TS_DEWT_072023.nc | 27-Oct-2024 17:10 | 451286 | ||
| PGXA2_TS_DEWT_072025.nc | 01-Aug-2025 08:17 | 451522 | ||
| PGXA2_TS_DEWT_082018.nc | 27-Oct-2024 17:11 | 4000965 | ||
| PGXA2_TS_DEWT_082019.nc | 27-Oct-2024 17:11 | 449432 | ||
| PGXA2_TS_DEWT_082020.nc | 27-Oct-2024 17:11 | 450460 | ||
| PGXA2_TS_DEWT_082021.nc | 27-Oct-2024 17:11 | 449883 | ||
| PGXA2_TS_DEWT_082022.nc | 27-Oct-2024 17:11 | 449010 | ||
| PGXA2_TS_DEWT_082023.nc | 27-Oct-2024 17:11 | 449324 | ||
| PGXA2_TS_DEWT_082025.nc | 01-Sep-2025 09:29 | 448838 | ||
| PGXA2_TS_DEWT_092018.nc | 27-Oct-2024 17:11 | 449522 | ||
| PGXA2_TS_DEWT_092019.nc | 27-Oct-2024 17:11 | 448745 | ||
| PGXA2_TS_DEWT_092020.nc | 27-Oct-2024 17:11 | 450494 | ||
| PGXA2_TS_DEWT_092021.nc | 27-Oct-2024 17:11 | 450617 | ||
| PGXA2_TS_DEWT_092022.nc | 27-Oct-2024 17:11 | 450975 | ||
| PGXA2_TS_DEWT_092023.nc | 27-Oct-2024 17:11 | 449998 | ||
| PGXA2_TS_DEWT_092025.nc | 01-Oct-2025 09:54 | 450362 | ||
| PGXA2_TS_DEWT_102018.nc | 27-Oct-2024 17:11 | 449962 | ||
| PGXA2_TS_DEWT_102019.nc | 27-Oct-2024 17:11 | 451262 | ||
| PGXA2_TS_DEWT_102020.nc | 27-Oct-2024 17:11 | 454930 | ||
| PGXA2_TS_DEWT_102021.nc | 27-Oct-2024 17:12 | 449065 | ||
| PGXA2_TS_DEWT_102022.nc | 27-Oct-2024 17:12 | 449918 | ||
| PGXA2_TS_DEWT_102023.nc | 27-Oct-2024 17:12 | 450376 | ||
| PGXA2_TS_DEWT_102025.nc | 01-Nov-2025 09:26 | 446979 | ||
| PGXA2_TS_DEWT_112018.nc | 27-Oct-2024 17:12 | 448734 | ||
| PGXA2_TS_DEWT_112019.nc | 27-Oct-2024 17:12 | 447395 | ||
| PGXA2_TS_DEWT_112020.nc | 27-Oct-2024 17:12 | 440786 | ||
| PGXA2_TS_DEWT_112021.nc | 27-Oct-2024 17:12 | 448488 | ||
| PGXA2_TS_DEWT_112022.nc | 27-Oct-2024 17:12 | 1076730 | ||
| PGXA2_TS_DEWT_112023.nc | 27-Oct-2024 17:12 | 2584183 | ||
| PGXA2_TS_DEWT_112024.nc | 17-Jan-2025 20:41 | 449737 | ||
| PGXA2_TS_DEWT_112025.nc | 01-Dec-2025 05:47 | 449477 | ||
| PGXA2_TS_DEWT_122018.nc | 27-Oct-2024 17:12 | 451629 | ||
| PGXA2_TS_DEWT_122019.nc | 27-Oct-2024 17:12 | 449395 | ||
| PGXA2_TS_DEWT_122020.nc | 27-Oct-2024 17:12 | 440487 | ||
| PGXA2_TS_DEWT_122021.nc | 27-Oct-2024 17:12 | 432117 | ||
| PGXA2_TS_DEWT_122022.nc | 27-Oct-2024 17:12 | 451313 | ||
| PGXA2_TS_DEWT_122023.nc | 27-Oct-2024 17:13 | 438044 | ||
| PGXA2_TS_DEWT_122024.nc | 22-Jan-2025 20:21 | 449716 | ||
| PGXA2_TS_DEWT_122025.nc | 01-Jan-2026 07:08 | 449444 | ||